Time;durP1;ratioP1;P1;durP2;ratioP2;P2;SDS_P1;SDS_P2;PMS_P1;PMS_P2;Temp;Humidity;BMP_temperature;BMP_pressure;BME280_temperature;BME280_humidity;BME280_pressure;Samples;Min_cycle;Max_cycle;Signal;HPM_P1;HPM_P2
2023/10/12 00:00:27;;;;;;;9.52;3.47;;;20.30;93.90;;;;;;6239578;23;20353;-73
2023/10/12 00:03:16;;;;;;;12.85;3.95;;;20.30;93.80;;;;;;6238529;23;20446;-72
2023/10/12 00:06:05;;;;;;;5.68;3.35;;;20.40;93.70;;;;;;6238323;23;20079;-72
2023/10/12 00:08:51;;;;;;;7.05;3.03;;;20.40;93.70;;;;;;6240076;23;20004;-72
2023/10/12 00:11:40;;;;;;;7.25;3.58;;;20.40;93.60;;;;;;6239429;23;20012;-72
2023/10/12 00:14:29;;;;;;;10.10;4.05;;;20.40;93.50;;;;;;6238425;23;20008;-73
2023/10/12 00:17:18;;;;;;;7.85;3.28;;;20.40;93.40;;;;;;6238549;23;20016;-72
2023/10/12 00:20:08;;;;;;;9.70;3.42;;;20.40;93.30;;;;;;6240892;23;20420;-72
2023/10/12 00:22:58;;;;;;;8.60;3.38;;;20.40;93.20;;;;;;6237677;23;20020;-72
2023/10/12 00:25:54;;;;;;;7.00;2.85;;;20.40;93.00;;;;;;6240992;23;20023;-73
2023/10/12 00:28:44;;;;;;;7.80;4.00;;;20.40;92.70;;;;;;6238877;23;20008;-71
2023/10/12 00:31:31;;;;;;;6.22;3.42;;;20.50;92.60;;;;;;6238545;23;20043;-72
2023/10/12 00:34:22;;;;;;;7.50;3.10;;;20.60;92.50;;;;;;6238972;23;20008;-72
2023/10/12 00:37:09;;;;;;;8.50;3.00;;;20.60;92.30;;;;;;6239071;23;20051;-71
2023/10/12 00:42:46;;;;;;;8.10;3.10;;;20.70;92.00;;;;;;6239950;23;20012;-72
2023/10/12 00:45:34;;;;;;;5.00;2.78;;;20.70;91.90;;;;;;6239865;23;20319;-71
2023/10/12 00:48:26;;;;;;;7.13;2.75;;;20.70;91.70;;;;;;6239011;23;20468;-72
2023/10/12 00:51:14;;;;;;;7.88;2.90;;;20.80;91.60;;;;;;6239975;23;20381;-72
2023/10/12 00:54:03;;;;;;;6.00;3.05;;;20.80;91.60;;;;;;6237941;23;20004;-71
2023/10/12 00:56:52;;;;;;;7.78;3.35;;;20.80;91.40;;;;;;6237189;22;20012;-71
2023/10/12 00:59:39;;;;;;;6.80;2.80;;;20.90;91.40;;;;;;6239755;23;20008;-71
2023/10/12 01:02:32;;;;;;;7.50;2.53;;;20.90;91.30;;;;;;6237650;23;20015;-72
2023/10/12 01:05:18;;;;;;;5.28;2.50;;;20.90;91.30;;;;;;6239986;23;20043;-72
2023/10/12 01:08:05;;;;;;;7.47;3.13;;;20.90;91.20;;;;;;6216957;23;20008;-72
2023/10/12 01:10:57;;;;;;;8.10;2.67;;;21.00;91.10;;;;;;6241855;23;20771;-70
2023/10/12 01:13:45;;;;;;;5.38;2.83;;;21.00;91.10;;;;;;6241787;23;20016;-70
2023/10/12 01:19:34;;;;;;;5.97;2.88;;;20.90;91.10;;;;;;6238496;23;20045;-71
2023/10/12 01:22:25;;;;;;;6.45;3.20;;;20.90;91.10;;;;;;6239250;23;20095;-71
2023/10/12 01:25:19;;;;;;;4.63;2.20;;;21.00;91.10;;;;;;6238489;23;20016;-70
2023/10/12 01:28:09;;;;;;;12.85;3.10;;;21.00;91.10;;;;;;6238421;23;20004;-71
2023/10/12 01:30:54;;;;;;;8.23;3.05;;;20.90;91.00;;;;;;6239608;23;20012;-71
2023/10/12 01:33:41;;;;;;;7.63;3.10;;;20.90;90.90;;;;;;6238043;23;20016;-71
2023/10/12 01:36:30;;;;;;;14.90;3.03;;;20.90;90.90;;;;;;6236953;23;20047;-71
2023/10/12 01:39:16;;;;;;;7.13;2.65;;;20.90;90.90;;;;;;6237532;23;20069;-71
2023/10/12 01:42:03;;;;;;;7.38;3.08;;;20.90;90.90;;;;;;6237813;23;20004;-72
2023/10/12 01:44:51;;;;;;;8.18;3.22;;;20.90;90.80;;;;;;6215752;23;20110;-71
2023/10/12 01:47:37;;;;;;;7.05;3.30;;;20.90;90.90;;;;;;6238493;23;20043;-72
2023/10/12 01:50:27;;;;;;;5.80;3.10;;;20.90;90.90;;;;;;6236569;23;20015;-72
2023/10/12 01:56:09;;;;;;;9.00;3.40;;;20.90;90.90;;;;;;6239120;22;20082;-71
2023/10/12 01:58:55;;;;;;;7.15;3.13;;;20.90;90.90;;;;;;6238929;23;20004;-71
2023/10/12 02:01:42;;;;;;;6.32;3.20;;;20.90;91.10;;;;;;6237771;23;20019;-71
2023/10/12 02:04:28;;;;;;;6.57;2.88;;;20.90;91.00;;;;;;6237295;23;20027;-72
2023/10/12 02:07:14;;;;;;;11.13;4.00;;;20.90;91.00;;;;;;6237996;23;20087;-72
2023/10/12 02:10:00;;;;;;;9.60;3.80;;;20.80;91.10;;;;;;6236819;23;20008;-70
2023/10/12 02:12:47;;;;;;;7.63;3.00;;;20.80;91.00;;;;;;6236804;23;20519;-72
2023/10/12 02:15:33;;;;;;;13.77;5.57;;;20.80;91.10;;;;;;6236613;23;20461;-72
2023/10/12 02:18:19;;;;;;;7.65;3.00;;;20.80;91.10;;;;;;6236325;23;20008;-72
2023/10/12 02:26:52;;;;;;;4.07;2.80;;;20.80;91.00;;;;;;6239840;23;20012;-70
2023/10/12 02:29:38;;;;;;;5.93;3.38;;;20.80;91.00;;;;;;6238977;23;20065;-70
2023/10/12 02:32:24;;;;;;;5.30;2.97;;;20.80;91.10;;;;;;6236678;23;20078;-70
2023/10/12 02:35:12;;;;;;;6.47;3.15;;;20.70;91.10;;;;;;6238077;23;20059;-69
2023/10/12 02:37:58;;;;;;;5.88;2.60;;;20.70;91.20;;;;;;6236944;23;20032;-70
2023/10/12 02:40:45;;;;;;;8.52;2.95;;;20.60;91.20;;;;;;6239847;23;20012;-70
2023/10/12 02:43:32;;;;;;;8.93;3.30;;;20.60;91.20;;;;;;6235830;23;20008;-70
2023/10/12 02:46:25;;;;;;;8.95;3.58;;;20.60;91.30;;;;;;6238444;23;20015;-72
2023/10/12 02:49:13;;;;;;;8.20;3.30;;;20.60;91.40;;;;;;6238719;23;20020;-72
2023/10/12 02:52:05;;;;;;;5.22;3.15;;;20.50;91.50;;;;;;6238270;23;20016;-72
2023/10/12 02:54:51;;;;;;;10.13;2.85;;;20.50;91.60;;;;;;6239641;23;20506;-70
2023/10/12 02:57:37;;;;;;;8.05;3.30;;;20.50;91.70;;;;;;6236861;23;20036;-71
2023/10/12 03:00:45;;;;;;;7.68;3.45;;;20.40;91.80;;;;;;6239847;23;20008;-71
2023/10/12 03:06:31;;;;;;;5.90;3.30;;;20.40;91.90;;;;;;6240116;23;20012;-71
2023/10/12 03:09:17;;;;;;;10.63;3.88;;;20.40;92.00;;;;;;6239929;23;20004;-72
2023/10/12 03:12:03;;;;;;;8.77;3.97;;;20.30;92.20;;;;;;6239107;23;20011;-72
2023/10/12 03:14:53;;;;;;;5.95;3.05;;;20.30;92.30;;;;;;6238725;23;20004;-70
2023/10/12 03:17:45;;;;;;;18.00;3.83;;;20.20;92.40;;;;;;6240225;23;20091;-70
2023/10/12 03:20:35;;;;;;;11.38;3.95;;;20.20;92.60;;;;;;6238806;23;20015;-69
2023/10/12 03:23:21;;;;;;;7.75;3.47;;;20.10;92.80;;;;;;6237856;23;20095;-71
2023/10/12 03:32:05;;;;;;;6.75;3.22;;;20.00;93.40;;;;;;6240276;23;20388;-70
2023/10/12 03:37:44;;;;;;;16.30;3.35;;;19.80;93.70;;;;;;6239739;23;20012;-70
2023/10/12 03:40:50;;;;;;;6.25;3.50;;;19.80;93.90;;;;;;6238765;23;20050;-70
2023/10/12 03:43:39;;;;;;;8.75;3.10;;;19.80;94.10;;;;;;6238138;23;20062;-71
2023/10/12 03:46:28;;;;;;;17.80;4.20;;;19.70;94.30;;;;;;6237645;23;20442;-71
2023/10/12 03:49:31;;;;;;;7.43;3.72;;;19.60;94.70;;;;;;6238059;23;20044;-70
2023/10/12 03:52:21;;;;;;;11.02;4.20;;;19.50;94.90;;;;;;6238730;23;20016;-69
2023/10/12 03:58:05;;;;;;;11.05;5.18;;;19.40;95.40;;;;;;6238389;23;20011;-68
2023/10/12 04:01:12;;;;;;;17.85;4.40;;;19.30;95.70;;;;;;6237800;23;20556;-68
2023/10/12 04:03:58;;;;;;;12.35;4.30;;;19.30;96.00;;;;;;6239023;23;20442;-67
2023/10/12 04:09:52;;;;;;;8.38;3.95;;;19.20;96.40;;;;;;6239392;23;20095;-67
2023/10/12 04:12:52;;;;;;;7.50;3.72;;;19.10;96.70;;;;;;6239255;23;20087;-66
2023/10/12 04:21:39;;;;;;;11.15;4.45;;;19.00;97.30;;;;;;6238500;23;20087;-67
2023/10/12 04:24:29;;;;;;;13.10;4.10;;;19.00;97.60;;;;;;6239824;23;20581;-67
2023/10/12 04:27:38;;;;;;;10.30;4.85;;;18.90;97.80;;;;;;6240354;23;20008;-67
2023/10/12 04:30:42;;;;;;;15.82;5.38;;;18.80;98.10;;;;;;6237452;23;20369;-66
2023/10/12 04:33:44;;;;;;;8.30;3.92;;;18.80;98.30;;;;;;6238767;23;20043;-66
2023/10/12 04:39:37;;;;;;;11.70;4.22;;;18.60;98.70;;;;;;6237594;23;20016;-66
2023/10/12 04:42:33;;;;;;;11.32;4.85;;;18.60;99.10;;;;;;6236891;23;20498;-66
2023/10/12 04:48:09;;;;;;;12.00;4.80;;;18.50;99.50;;;;;;6238817;23;20008;-66
2023/10/12 04:50:59;;;;;;;8.73;3.97;;;18.50;99.60;;;;;;6240145;23;20008;-66
2023/10/12 04:54:05;;;;;;;10.63;4.15;;;18.50;99.80;;;;;;6238666;23;20012;-66
2023/10/12 04:57:11;;;;;;;11.40;4.15;;;18.40;99.90;;;;;;6237861;22;20046;-67
2023/10/12 05:00:17;;;;;;;6.07;3.10;;;18.40;99.90;;;;;;6237277;23;20460;-66
2023/10/12 05:03:22;;;;;;;5.72;2.88;;;18.40;99.90;;;;;;6237916;23;20087;-65
2023/10/12 05:06:09;;;;;;;12.10;4.55;;;18.30;99.90;;;;;;6239126;23;20016;-66
2023/10/12 05:08:54;;;;;;;11.98;2.95;;;18.30;99.90;;;;;;6239293;23;20087;-66
2023/10/12 05:11:40;;;;;;;7.32;3.45;;;18.20;99.90;;;;;;6239222;23;20019;-66
2023/10/12 05:14:27;;;;;;;6.32;3.17;;;18.20;99.90;;;;;;6239444;23;20079;-68
2023/10/12 05:17:13;;;;;;;6.78;3.85;;;18.20;99.90;;;;;;6238479;23;20047;-68
2023/10/12 05:19:59;;;;;;;7.78;2.78;;;18.10;99.90;;;;;;6238198;23;20091;-67
2023/10/12 05:22:45;;;;;;;4.65;3.05;;;18.10;99.90;;;;;;6238494;23;20026;-69
2023/10/12 05:28:47;;;;;;;8.50;3.30;;;18.00;99.90;;;;;;6237874;23;20008;-68
2023/10/12 05:31:39;;;;;;;7.13;3.38;;;18.00;99.90;;;;;;6238669;23;20396;-70
2023/10/12 05:34:46;;;;;;;3.88;2.78;;;18.00;99.90;;;;;;6238427;23;20080;-69
2023/10/12 05:37:38;;;;;;;4.45;2.92;;;17.90;99.90;;;;;;6239843;23;20050;-69
2023/10/12 05:40:35;;;;;;;3.97;2.53;;;17.90;99.90;;;;;;6237666;23;20069;-69
2023/10/12 05:43:22;;;;;;;6.70;3.35;;;17.90;99.90;;;;;;6238888;23;20768;-70
2023/10/12 05:46:15;;;;;;;5.25;2.58;;;17.90;99.90;;;;;;6237893;23;20027;-68
2023/10/12 05:49:03;;;;;;;5.95;3.08;;;17.90;99.90;;;;;;6238917;23;20016;-69
2023/10/12 05:51:49;;;;;;;5.85;3.38;;;17.90;99.90;;;;;;6239410;23;20012;-68
2023/10/12 05:54:40;;;;;;;6.72;3.20;;;17.80;99.90;;;;;;6238197;23;20107;-69
2023/10/12 05:57:29;;;;;;;8.77;3.78;;;17.80;99.90;;;;;;6237320;22;20074;-69
2023/10/12 06:00:41;;;;;;;7.82;3.47;;;17.80;99.90;;;;;;6237459;23;20019;-68
2023/10/12 06:03:27;;;;;;;6.38;3.50;;;17.80;99.90;;;;;;6238136;23;20009;-68
2023/10/12 06:06:14;;;;;;;10.63;4.40;;;17.80;99.90;;;;;;6237554;23;20027;-68
2023/10/12 06:09:01;;;;;;;8.48;4.47;;;17.80;99.90;;;;;;6240438;23;20008;-69
2023/10/12 06:11:48;;;;;;;7.82;4.10;;;17.80;99.90;;;;;;6236996;23;20477;-68
2023/10/12 06:14:38;;;;;;;9.30;4.03;;;17.80;99.90;;;;;;6237404;23;20055;-68
2023/10/12 06:17:30;;;;;;;8.15;4.28;;;17.80;99.90;;;;;;6239073;23;20008;-66
2023/10/12 06:20:29;;;;;;;10.88;4.75;;;17.80;99.90;;;;;;6237317;23;20341;-67
2023/10/12 06:23:16;;;;;;;9.23;4.82;;;17.80;99.90;;;;;;6237657;23;20027;-68
2023/10/12 06:26:02;;;;;;;11.18;4.75;;;17.80;99.90;;;;;;6237786;23;20028;-68
2023/10/12 06:28:54;;;;;;;8.02;4.53;;;17.80;99.90;;;;;;6237250;23;20086;-68
2023/10/12 06:31:40;;;;;;;13.00;4.70;;;17.80;99.90;;;;;;6237705;23;20013;-68
2023/10/12 06:34:29;;;;;;;11.55;5.25;;;17.80;99.90;;;;;;6239303;23;20004;-68
2023/10/12 06:38:15;;;;;;;7.90;4.55;;;17.80;99.90;;;;;;6238608;23;20016;-68
2023/10/12 06:45:57;;;;;;;9.80;5.47;;;17.90;99.90;;;;;;6240683;23;20027;-67
2023/10/12 06:48:47;;;;;;;10.43;5.55;;;17.90;99.90;;;;;;6241090;23;20039;-67
2023/10/12 06:51:33;;;;;;;9.82;5.70;;;17.90;99.90;;;;;;6239068;23;20016;-66
2023/10/12 06:54:31;;;;;;;10.65;5.45;;;17.90;99.90;;;;;;6239399;23;20011;-67
2023/10/12 07:00:33;;;;;;;11.60;5.80;;;18.00;99.90;;;;;;6240725;23;20070;-66
2023/10/12 07:03:09;;;;;;;10.57;5.53;;;18.00;99.90;;;;;;6239824;23;20008;-68
2023/10/12 07:05:55;;;;;;;10.50;5.97;;;18.00;99.90;;;;;;6238208;23;20066;-66
2023/10/12 07:08:46;;;;;;;14.55;6.72;;;18.00;99.90;;;;;;6239666;23;20000;-66
2023/10/12 07:11:32;;;;;;;13.00;6.07;;;18.00;99.90;;;;;;6238596;23;20499;-66
2023/10/12 07:14:30;;;;;;;8.27;5.90;;;18.00;99.90;;;;;;6238903;23;20004;-66
2023/10/12 07:17:16;;;;;;;19.30;12.38;;;18.00;99.90;;;;;;6239724;23;20099;-66
2023/10/12 07:20:06;;;;;;;13.05;8.05;;;18.10;99.90;;;;;;6241259;23;20008;-65
2023/10/12 07:22:53;;;;;;;14.18;7.47;;;18.00;99.90;;;;;;6235548;23;20035;-65
2023/10/12 07:25:43;;;;;;;13.40;6.70;;;18.10;99.90;;;;;;6240217;23;20027;-66
2023/10/12 07:28:32;;;;;;;10.05;6.30;;;18.10;99.90;;;;;;6237774;23;20012;-66
2023/10/12 07:34:13;;;;;;;10.38;5.80;;;18.10;99.90;;;;;;6240449;23;20027;-66
2023/10/12 07:36:59;;;;;;;9.30;5.85;;;18.20;99.90;;;;;;6240748;23;20046;-66
2023/10/12 07:39:45;;;;;;;8.57;5.93;;;18.20;99.90;;;;;;6238454;23;20012;-68
2023/10/12 07:42:31;;;;;;;11.65;5.47;;;18.20;99.90;;;;;;6238651;23;20039;-65
2023/10/12 07:45:19;;;;;;;10.20;5.35;;;18.20;99.90;;;;;;6240471;23;20016;-66
2023/10/12 07:48:09;;;;;;;10.27;5.05;;;18.30;99.90;;;;;;6238240;23;20035;-66
2023/10/12 07:50:57;;;;;;;8.38;4.43;;;18.30;99.90;;;;;;6236934;23;20099;-66
2023/10/12 07:53:44;;;;;;;12.45;5.43;;;18.30;99.90;;;;;;6242412;23;20083;-73
2023/10/12 07:56:33;;;;;;;8.10;4.75;;;18.30;99.90;;;;;;6240730;22;20035;-68
2023/10/12 07:59:22;;;;;;;9.52;4.70;;;18.20;99.90;;;;;;6237653;23;20043;-67
2023/10/12 08:02:15;;;;;;;8.85;5.25;;;18.20;99.90;;;;;;6238792;23;20012;-68
2023/10/12 08:05:15;;;;;;;5.47;2.50;;;18.20;99.90;;;;;;6239134;23;20040;-67
2023/10/12 08:10:58;;;;;;;3.60;1.77;;;17.50;99.90;;;;;;6239451;23;20012;-68
2023/10/12 08:13:54;;;;;;;3.42;1.40;;;17.30;99.90;;;;;;6240564;23;20009;-67
2023/10/12 08:16:41;;;;;;;2.60;1.25;;;17.00;99.90;;;;;;6238961;23;20008;-67
2023/10/12 08:19:38;;;;;;;4.38;2.05;;;16.80;99.90;;;;;;6240804;23;20456;-67
2023/10/12 08:22:29;;;;;;;5.30;1.95;;;16.60;99.90;;;;;;6235020;23;20352;-67
2023/10/12 08:25:15;;;;;;;4.45;2.28;;;16.40;99.90;;;;;;6238943;23;20034;-67
2023/10/12 08:28:18;;;;;;;5.15;2.10;;;16.20;99.90;;;;;;6240694;23;20088;-67
2023/10/12 08:31:06;;;;;;;4.35;2.00;;;16.10;99.90;;;;;;6241872;23;20019;-68
2023/10/12 08:34:13;;;;;;;4.00;1.40;;;16.00;99.90;;;;;;6240756;23;20012;-66
2023/10/12 08:42:58;;;;;;;4.47;2.00;;;15.80;99.90;;;;;;6239131;23;20019;-67
2023/10/12 08:45:44;;;;;;;5.47;1.80;;;15.70;99.90;;;;;;6238018;23;20024;-66
2023/10/12 08:48:34;;;;;;;8.23;2.85;;;15.70;99.90;;;;;;6237675;23;20448;-66
2023/10/12 08:51:29;;;;;;;5.45;1.95;;;15.60;99.90;;;;;;6238520;23;20457;-67
2023/10/12 08:54:17;;;;;;;4.47;1.90;;;15.60;99.90;;;;;;6241124;23;20104;-67
2023/10/12 08:57:35;;;;;;;5.20;1.73;;;15.50;99.90;;;;;;6240846;22;20008;-67
2023/10/12 09:12:23;;;;;;;10.27;2.20;;;15.20;99.90;;;;;;6237999;23;20001;-66
2023/10/12 09:15:09;;;;;;;6.90;2.25;;;15.20;99.90;;;;;;6240373;23;20008;-66
2023/10/12 09:18:09;;;;;;;5.18;1.83;;;15.30;99.90;;;;;;6239517;23;20004;-66
2023/10/12 09:27:01;;;;;;;7.60;3.40;;;15.50;99.90;;;;;;6239277;23;20008;-74
2023/10/12 09:29:57;;;;;;;8.15;1.98;;;15.60;99.90;;;;;;6238397;23;20020;-67
2023/10/12 09:32:57;;;;;;;8.52;2.35;;;15.60;99.90;;;;;;6238345;23;20012;-67
2023/10/12 09:35:42;;;;;;;8.80;2.38;;;15.70;99.90;;;;;;6237403;23;20122;-67
2023/10/12 09:38:30;;;;;;;7.88;2.40;;;15.80;99.90;;;;;;6237617;23;20008;-66
2023/10/12 09:41:19;;;;;;;7.45;2.53;;;15.90;99.90;;;;;;6237910;23;20012;-66
2023/10/12 09:44:11;;;;;;;5.47;2.40;;;15.90;99.90;;;;;;6239337;23;20477;-67
2023/10/12 09:46:59;;;;;;;5.45;2.90;;;16.00;99.90;;;;;;6238281;23;20016;-70
2023/10/12 09:49:54;;;;;;;5.30;2.08;;;16.00;99.90;;;;;;6236897;23;20064;-66
2023/10/12 09:52:46;;;;;;;7.25;2.85;;;16.10;99.90;;;;;;6236357;23;20008;-67
2023/10/12 09:55:36;;;;;;;8.18;2.10;;;16.10;99.90;;;;;;6237113;22;20047;-67
2023/10/12 09:58:23;;;;;;;6.75;2.35;;;16.20;99.90;;;;;;6237892;23;20047;-67
2023/10/12 10:01:15;;;;;;;6.03;1.65;;;16.20;99.90;;;;;;6238176;23;20040;-66
2023/10/12 10:04:27;;;;;;;15.40;2.30;;;16.30;99.90;;;;;;6236868;23;20008;-67
2023/10/12 10:07:25;;;;;;;6.68;2.03;;;16.40;99.90;;;;;;6238152;23;20016;-68
2023/10/12 10:10:27;;;;;;;7.40;1.88;;;16.50;99.90;;;;;;6240423;23;20015;-69
2023/10/12 10:13:41;;;;;;;13.07;2.58;;;16.50;99.90;;;;;;6239931;23;20413;-69
2023/10/12 10:16:37;;;;;;;4.80;2.17;;;16.60;99.90;;;;;;6239302;23;20035;-67
2023/10/12 10:19:28;;;;;;;5.18;2.13;;;16.70;99.90;;;;;;6239608;23;20012;-67
2023/10/12 10:22:15;;;;;;;5.35;1.90;;;16.60;99.90;;;;;;6238833;23;20048;-65
2023/10/12 10:25:05;;;;;;;6.72;2.20;;;16.80;99.90;;;;;;6239011;23;20016;-68
2023/10/12 10:27:56;;;;;;;6.72;1.90;;;16.90;99.90;;;;;;6239941;23;20004;-69
2023/10/12 10:30:46;;;;;;;9.60;2.65;;;16.90;99.90;;;;;;6239596;23;20035;-70
2023/10/12 10:33:37;;;;;;;7.88;2.55;;;16.90;99.90;;;;;;6239273;23;20036;-69
2023/10/12 10:36:25;;;;;;;7.78;2.00;;;16.90;99.90;;;;;;6239449;23;20070;-70
2023/10/12 10:39:28;;;;;;;7.00;2.22;;;17.00;99.90;;;;;;6240246;23;20019;-74
2023/10/12 10:42:14;;;;;;;6.18;2.05;;;16.90;99.90;;;;;;6241458;23;20377;-71
2023/10/12 10:45:12;;;;;;;4.95;1.77;;;17.00;99.90;;;;;;6238065;23;20030;-71
2023/10/12 10:47:58;;;;;;;6.22;1.80;;;17.10;99.90;;;;;;6238745;23;20008;-71
2023/10/12 10:50:51;;;;;;;9.15;1.98;;;17.10;99.80;;;;;;6238965;23;20043;-71
2023/10/12 10:53:38;;;;;;;11.10;2.67;;;17.20;99.80;;;;;;6239178;23;20094;-71
2023/10/12 10:56:47;;;;;;;7.05;2.38;;;17.20;99.80;;;;;;6231547;22;20008;-70
2023/10/12 10:59:34;;;;;;;7.45;2.10;;;17.20;99.80;;;;;;6235595;23;20102;-71
2023/10/12 11:02:21;;;;;;;5.60;1.83;;;17.10;99.70;;;;;;6238916;23;20477;-70
2023/10/12 11:05:15;;;;;;;7.47;2.83;;;17.10;99.60;;;;;;6238057;23;20083;-70
2023/10/12 11:08:19;;;;;;;8.40;2.47;;;17.20;99.70;;;;;;6238374;23;20016;-72
2023/10/12 11:13:55;;;;;;;8.38;2.33;;;17.20;99.60;;;;;;6240071;23;20346;-68
2023/10/12 11:16:45;;;;;;;5.35;1.90;;;17.30;99.30;;;;;;6239560;23;20012;-66
2023/10/12 11:19:33;;;;;;;5.78;1.92;;;17.40;99.20;;;;;;6239360;23;20008;-67
2023/10/12 11:22:19;;;;;;;6.78;2.20;;;17.40;99.10;;;;;;6239911;23;20090;-67
2023/10/12 11:25:12;;;;;;;10.45;1.92;;;17.40;99.00;;;;;;6239039;23;20051;-68
2023/10/12 11:27:58;;;;;;;5.78;2.30;;;17.50;98.90;;;;;;6241844;23;20008;-68
2023/10/12 11:30:44;;;;;;;8.80;2.80;;;17.50;98.60;;;;;;6241784;23;20016;-68
2023/10/12 11:33:30;;;;;;;10.57;2.63;;;17.50;98.60;;;;;;6239602;23;20004;-68
2023/10/12 11:36:23;;;;;;;11.07;2.65;;;17.50;98.70;;;;;;6240093;23;20012;-68
2023/10/12 11:39:18;;;;;;;7.85;2.53;;;17.60;98.60;;;;;;6242241;23;20013;-68
2023/10/12 11:42:06;;;;;;;5.38;2.03;;;17.70;98.50;;;;;;6239587;23;20043;-68
2023/10/12 11:44:52;;;;;;;8.88;2.20;;;17.70;98.60;;;;;;6238674;23;20016;-68
2023/10/12 11:47:39;;;;;;;10.07;3.10;;;17.70;98.10;;;;;;6238400;23;20026;-69
2023/10/12 11:50:32;;;;;;;8.23;2.28;;;17.70;98.20;;;;;;6239110;23;20091;-69
2023/10/12 11:53:18;;;;;;;8.38;2.45;;;17.70;98.30;;;;;;6241041;23;20019;-69
2023/10/12 11:56:14;;;;;;;7.40;2.15;;;17.80;98.10;;;;;;6241801;22;20023;-69
2023/10/12 11:59:00;;;;;;;4.95;2.40;;;17.80;98.20;;;;;;6238637;23;20461;-69
2023/10/12 12:01:51;;;;;;;6.75;1.80;;;17.90;98.10;;;;;;6239377;23;20392;-68
2023/10/12 12:04:39;;;;;;;10.25;2.63;;;17.90;98.10;;;;;;6241596;23;20425;-67
2023/10/12 12:07:26;;;;;;;6.63;1.92;;;17.90;97.70;;;;;;6239047;23;20082;-68
2023/10/12 12:10:13;;;;;;;7.85;2.00;;;18.00;97.60;;;;;;6241615;23;20012;-69
2023/10/12 12:12:59;;;;;;;10.45;2.42;;;18.10;97.50;;;;;;6239674;23;20065;-69
2023/10/12 12:15:45;;;;;;;6.97;2.10;;;18.10;97.20;;;;;;6240582;23;20044;-68
2023/10/12 12:18:32;;;;;;;6.63;2.83;;;18.10;97.10;;;;;;6238821;23;20032;-68
2023/10/12 12:21:29;;;;;;;5.80;2.00;;;18.10;97.30;;;;;;6239151;23;20012;-68
2023/10/12 12:24:22;;;;;;;5.47;2.03;;;18.20;97.50;;;;;;6238822;23;20031;-69
2023/10/12 12:27:32;;;;;;;7.78;2.25;;;18.20;97.60;;;;;;6239162;23;20039;-69
2023/10/12 12:30:28;;;;;;;7.82;1.88;;;18.30;97.70;;;;;;6238185;23;20397;-69
2023/10/12 12:33:17;;;;;;;4.93;1.75;;;18.30;97.60;;;;;;6240200;23;20040;-69
2023/10/12 12:36:07;;;;;;;6.65;1.95;;;18.40;97.60;;;;;;6238369;23;20454;-69
2023/10/12 12:39:09;;;;;;;5.47;1.67;;;18.40;97.40;;;;;;6238742;23;20083;-69
2023/10/12 12:41:55;;;;;;;4.40;1.60;;;18.50;97.30;;;;;;6239158;23;20012;-69
2023/10/12 12:44:42;;;;;;;8.98;1.90;;;18.60;97.50;;;;;;6238631;23;20430;-68
2023/10/12 12:47:32;;;;;;;9.38;2.08;;;18.60;97.30;;;;;;6238660;23;20008;-69
2023/10/12 12:50:18;;;;;;;7.65;1.88;;;18.60;97.20;;;;;;6240566;23;20012;-69
2023/10/12 12:53:11;;;;;;;5.30;1.60;;;18.70;97.30;;;;;;6238615;23;20073;-69
2023/10/12 12:55:57;;;;;;;4.93;1.70;;;18.70;97.30;;;;;;6238185;22;20442;-69
2023/10/12 12:58:47;;;;;;;4.07;1.92;;;18.80;97.30;;;;;;6239011;23;20035;-69
2023/10/12 13:01:33;;;;;;;7.30;1.85;;;18.80;97.10;;;;;;6241244;23;20510;-69
2023/10/12 13:04:19;;;;;;;5.65;2.15;;;18.90;97.00;;;;;;6238522;23;20099;-69
2023/10/12 13:07:08;;;;;;;8.18;2.42;;;18.90;96.90;;;;;;6238774;23;20015;-68
2023/10/12 13:09:54;;;;;;;5.60;1.98;;;18.90;97.00;;;;;;6237876;23;20489;-69
2023/10/12 13:12:40;;;;;;;4.32;2.20;;;19.00;96.80;;;;;;6238338;23;20329;-69
2023/10/12 13:15:27;;;;;;;6.43;1.75;;;19.00;96.70;;;;;;6238829;23;20095;-69
2023/10/12 13:18:16;;;;;;;7.80;2.72;;;19.10;96.70;;;;;;6238801;23;20091;-68
2023/10/12 13:21:06;;;;;;;6.32;2.03;;;19.10;96.60;;;;;;6238965;23;20016;-69
2023/10/12 13:23:52;;;;;;;6.80;1.80;;;19.10;96.80;;;;;;6209708;23;20021;-69
2023/10/12 13:26:43;;;;;;;8.02;1.90;;;19.10;96.40;;;;;;6208460;23;20443;-69
2023/10/12 13:29:29;;;;;;;11.50;1.88;;;19.10;96.30;;;;;;6211272;23;20016;-69
2023/10/12 13:32:17;;;;;;;4.93;1.80;;;19.20;96.20;;;;;;6208516;23;20013;-68
2023/10/12 13:35:17;;;;;;;7.45;2.15;;;19.20;96.30;;;;;;6211628;23;20074;-70
2023/10/12 13:38:05;;;;;;;4.40;1.50;;;19.20;96.20;;;;;;6209117;23;20013;-72
2023/10/12 13:40:51;;;;;;;10.25;2.10;;;19.20;96.00;;;;;;6186358;23;20012;-72
2023/10/12 13:43:37;;;;;;;6.05;1.80;;;19.20;95.90;;;;;;6211696;23;20125;-71
2023/10/12 13:46:23;;;;;;;6.10;1.88;;;19.20;95.80;;;;;;6209159;23;20017;-71
2023/10/12 13:49:11;;;;;;;7.07;1.90;;;19.20;95.90;;;;;;6210613;23;20013;-71
2023/10/12 13:51:57;;;;;;;6.43;1.80;;;19.10;95.80;;;;;;6206672;23;20454;-72
2023/10/12 13:54:45;;;;;;;6.65;2.17;;;19.10;95.90;;;;;;6207934;23;20527;-71
2023/10/12 13:57:32;;;;;;;5.50;2.15;;;19.10;95.80;;;;;;6186363;23;20541;-71
2023/10/12 14:00:25;;;;;;;10.85;2.20;;;19.00;95.80;;;;;;6186358;23;20016;-72
2023/10/12 14:03:11;;;;;;;10.18;1.80;;;19.00;95.80;;;;;;6209401;23;20004;-71
2023/10/12 14:05:59;;;;;;;7.45;2.35;;;19.00;95.90;;;;;;6207894;23;20035;-72
2023/10/12 14:08:46;;;;;;;9.55;2.28;;;19.00;95.90;;;;;;6208184;23;20012;-72
2023/10/12 14:11:32;;;;;;;6.13;2.13;;;19.00;95.90;;;;;;6208073;23;20447;-72
2023/10/12 14:14:19;;;;;;;5.93;2.00;;;18.90;95.70;;;;;;6207678;23;20012;-72
2023/10/12 14:17:07;;;;;;;8.15;2.15;;;18.90;95.80;;;;;;6208139;23;20011;-72
2023/10/12 14:19:55;;;;;;;7.03;2.20;;;18.90;95.80;;;;;;6210715;23;20020;-70
2023/10/12 14:22:44;;;;;;;6.20;2.65;;;18.90;95.70;;;;;;6227463;23;20354;-71
2023/10/12 14:25:30;;;;;;;5.15;2.72;;;18.90;95.60;;;;;;6237273;23;20165;-71
2023/10/12 14:28:17;;;;;;;10.73;3.42;;;18.90;95.50;;;;;;6233390;23;20008;-71
2023/10/12 14:31:05;;;;;;;9.63;2.05;;;18.90;95.50;;;;;;6238287;23;20008;-70
2023/10/12 14:33:51;;;;;;;10.13;2.65;;;18.90;95.40;;;;;;6238462;23;20431;-69
2023/10/12 14:36:38;;;;;;;6.18;1.90;;;18.80;95.40;;;;;;6238639;23;20112;-68
2023/10/12 14:39:24;;;;;;;5.68;2.08;;;18.80;95.40;;;;;;6239030;23;20380;-67
2023/10/12 14:42:11;;;;;;;4.90;1.55;;;18.80;95.50;;;;;;6215516;23;20089;-68
2023/10/12 14:44:57;;;;;;;9.55;2.08;;;18.80;95.60;;;;;;6238058;23;20088;-68
2023/10/12 14:47:46;;;;;;;5.40;1.65;;;18.70;95.70;;;;;;6237585;23;20012;-69
2023/10/12 14:50:31;;;;;;;4.45;2.20;;;18.70;95.70;;;;;;6239614;23;20008;-70
2023/10/12 14:53:21;;;;;;;5.25;2.05;;;18.70;95.70;;;;;;6237498;23;20020;-67
2023/10/12 14:56:08;;;;;;;7.60;2.60;;;18.60;95.70;;;;;;6241193;22;20016;-69
2023/10/12 14:58:55;;;;;;;4.95;2.55;;;18.60;95.70;;;;;;6240513;23;20004;-69
2023/10/12 15:01:41;;;;;;;10.27;2.97;;;18.60;95.70;;;;;;6239656;23;20069;-69
2023/10/12 15:04:27;;;;;;;9.48;4.45;;;18.60;95.60;;;;;;6239155;23;20020;-70
2023/10/12 15:07:14;;;;;;;10.32;3.95;;;18.50;95.70;;;;;;6239914;23;20597;-70
2023/10/12 15:10:05;;;;;;;9.80;4.03;;;18.50;95.80;;;;;;6239285;23;20019;-70
2023/10/12 15:12:51;;;;;;;7.30;2.50;;;18.50;95.90;;;;;;6241144;23;20032;-70
2023/10/12 15:15:38;;;;;;;4.75;2.10;;;18.40;95.90;;;;;;6238409;23;20069;-69
2023/10/12 15:18:24;;;;;;;6.32;2.72;;;18.40;95.90;;;;;;6240820;23;20486;-68
2023/10/12 15:21:12;;;;;;;7.28;2.50;;;18.30;96.00;;;;;;6240278;23;20019;-70
2023/10/12 15:23:58;;;;;;;11.27;3.25;;;18.30;96.20;;;;;;6239638;23;20023;-69
2023/10/12 15:26:44;;;;;;;6.68;2.67;;;18.20;96.40;;;;;;6240318;23;20016;-69
2023/10/12 15:29:32;;;;;;;9.02;2.72;;;18.20;96.50;;;;;;6240651;23;20012;-70
2023/10/12 15:32:18;;;;;;;8.30;3.30;;;18.10;96.60;;;;;;6239982;23;20039;-69
2023/10/12 15:35:10;;;;;;;8.60;2.83;;;18.10;96.80;;;;;;6241856;23;20468;-69
2023/10/12 15:37:57;;;;;;;9.23;3.17;;;18.10;96.90;;;;;;6239379;23;20012;-69
2023/10/12 15:40:43;;;;;;;9.25;2.47;;;18.10;97.00;;;;;;6241475;23;20466;-69
2023/10/12 15:43:29;;;;;;;11.23;2.78;;;18.00;97.00;;;;;;6238428;23;20342;-69
2023/10/12 15:46:16;;;;;;;7.28;2.63;;;18.00;97.10;;;;;;6239574;23;20362;-70
2023/10/12 15:49:03;;;;;;;13.73;3.55;;;17.90;97.20;;;;;;6238913;23;20075;-69
2023/10/12 15:51:49;;;;;;;8.68;3.85;;;17.90;97.30;;;;;;6238321;23;20008;-69
2023/10/12 15:54:35;;;;;;;9.43;2.85;;;17.80;97.40;;;;;;6238791;23;20008;-69
2023/10/12 15:57:21;;;;;;;10.80;3.05;;;17.80;97.60;;;;;;6238632;22;20012;-69
2023/10/12 16:00:24;;;;;;;7.13;3.08;;;17.80;97.70;;;;;;6238325;23;20012;-68
2023/10/12 16:03:10;;;;;;;13.48;3.13;;;17.70;97.80;;;;;;6239831;23;20050;-69
2023/10/12 16:05:56;;;;;;;13.23;3.28;;;17.70;97.90;;;;;;6238138;23;20020;-69
2023/10/12 16:08:44;;;;;;;8.13;2.25;;;17.70;98.00;;;;;;6237541;23;20035;-70
2023/10/12 16:11:33;;;;;;;7.43;2.50;;;17.60;98.10;;;;;;6238987;23;20365;-69